Time;durP1;ratioP1;P1;durP2;ratioP2;P2;SDS_P1;SDS_P2;PMS_P1;PMS_P2;Temp;Humidity;BMP_temperature;BMP_pressure;BME280_temperature;BME280_humidity;BME280_pressure;Samples;Min_cycle;Max_cycle;Signal;HPM_P1;HPM_P2
2021/10/12 00:00:08;;;;;;;16.70;9.45;;;;;;;7.22;51.00;100552.59;5059093;28;20538;-74
2021/10/12 00:02:40;;;;;;;13.65;7.60;;;;;;;7.29;51.00;100570.00;5076837;28;20040;-74
2021/10/12 00:05:06;;;;;;;13.02;8.20;;;;;;;7.22;50.89;100555.25;5042259;28;20039;-74
2021/10/12 00:07:32;;;;;;;11.43;7.20;;;;;;;7.35;50.54;100572.38;5058666;28;20396;-74
2021/10/12 00:09:58;;;;;;;15.60;7.85;;;;;;;7.36;50.70;100573.25;5058394;28;20065;-74
2021/10/12 00:12:24;;;;;;;16.27;8.07;;;;;;;7.24;50.70;100574.69;5058334;28;20081;-74
2021/10/12 00:14:50;;;;;;;11.40;7.88;;;;;;;7.25;50.65;100584.38;5058985;28;20059;-74
2021/10/12 00:17:16;;;;;;;16.08;8.68;;;;;;;7.20;50.87;100584.59;5091927;28;20422;-73
2021/10/12 00:19:43;;;;;;;21.17;7.82;;;;;;;7.08;50.60;100574.53;5091793;28;20544;-75
2021/10/12 00:22:09;;;;;;;16.52;8.65;;;;;;;7.06;50.51;100595.00;5058210;28;20036;-73
2021/10/12 00:24:35;;;;;;;12.65;9.25;;;;;;;7.00;50.40;100593.50;5057952;28;20055;-76
2021/10/12 00:27:01;;;;;;;15.52;8.75;;;;;;;6.93;50.53;100597.38;5091194;28;20571;-73
2021/10/12 00:29:27;;;;;;;16.30;8.20;;;;;;;6.77;51.22;100601.59;5058297;28;20052;-74
2021/10/12 00:31:53;;;;;;;14.25;9.45;;;;;;;6.77;50.83;100596.28;5058038;28;20044;-74
2021/10/12 00:34:19;;;;;;;12.25;8.20;;;;;;;6.69;51.03;100587.81;5041582;28;20097;-74
2021/10/12 00:36:46;;;;;;;13.88;8.48;;;;;;;6.78;51.05;100603.38;5058323;28;20040;-75
2021/10/12 00:39:12;;;;;;;10.85;7.50;;;;;;;6.66;51.44;100602.09;5074787;28;20052;-74
2021/10/12 00:41:38;;;;;;;13.95;7.68;;;;;;;6.76;51.33;100607.88;5041350;28;20147;-74
2021/10/12 00:44:06;;;;;;;14.10;8.35;;;;;;;6.79;51.40;100610.41;5041417;28;20047;-74
2021/10/12 00:46:32;;;;;;;24.02;8.05;;;;;;;6.79;51.49;100615.72;5058076;28;20406;-73
2021/10/12 00:48:58;;;;;;;12.05;7.65;;;;;;;6.80;51.55;100614.78;5041826;28;20055;-73
2021/10/12 00:51:24;;;;;;;25.35;12.77;;;;;;;6.88;51.59;100609.13;5057872;28;20055;-74
2021/10/12 00:53:50;;;;;;;11.25;7.43;;;;;;;6.86;51.35;100601.22;5057812;28;20126;-74
2021/10/12 00:56:16;;;;;;;11.35;7.97;;;;;;;7.06;51.25;100614.47;5041820;28;20135;-73
2021/10/12 00:58:42;;;;;;;13.60;7.10;;;;;;;7.17;51.14;100603.34;5057791;28;20039;-74
2021/10/12 01:01:08;;;;;;;10.82;7.50;;;;;;;7.25;51.31;100613.63;5024638;28;20050;-74
2021/10/12 01:03:34;;;;;;;14.23;7.15;;;;;;;7.21;51.47;100591.63;5074723;28;20043;-75
2021/10/12 01:05:59;;;;;;;11.02;7.00;;;;;;;7.36;51.31;100610.47;5057777;28;20044;-75
2021/10/12 01:08:25;;;;;;;10.43;6.68;;;;;;;7.35;51.20;100598.97;5057652;28;20379;-74
2021/10/12 01:10:51;;;;;;;14.57;7.40;;;;;;;7.42;51.33;100608.41;5058167;28;20043;-74
2021/10/12 01:13:17;;;;;;;10.55;6.63;;;;;;;7.46;51.33;100612.66;5074579;28;20055;-74
2021/10/12 01:15:43;;;;;;;16.63;7.07;;;;;;;7.39;51.44;100595.25;5058009;28;20130;-75
2021/10/12 01:18:13;;;;;;;13.35;6.45;;;;;;;7.48;51.58;100609.91;5041204;28;20042;-75
2021/10/12 01:20:39;;;;;;;11.00;7.50;;;;;;;7.49;51.48;100599.19;5024683;28;20037;-75
2021/10/12 01:23:05;;;;;;;10.90;7.00;;;;;;;7.61;51.40;100604.88;5090981;28;20040;-75
2021/10/12 01:25:31;;;;;;;11.52;6.88;;;;;;;7.65;51.13;100601.13;5057598;28;20051;-74
2021/10/12 01:27:57;;;;;;;13.13;6.97;;;;;;;7.69;51.18;100608.03;5057276;28;20064;-76
2021/10/12 01:30:23;;;;;;;11.02;6.82;;;;;;;7.64;51.32;100596.75;5074226;28;20442;-75
2021/10/12 01:32:49;;;;;;;10.40;6.72;;;;;;;7.79;50.98;100609.31;5057683;28;20035;-74
2021/10/12 01:35:15;;;;;;;17.77;7.15;;;;;;;7.82;51.03;100603.81;5057494;28;20040;-74
2021/10/12 01:37:42;;;;;;;9.85;7.05;;;;;;;7.86;50.83;100618.75;5060681;28;20184;-74
2021/10/12 01:40:10;;;;;;;20.73;6.60;;;;;;;7.83;50.83;100610.03;5094843;28;20048;-75
2021/10/12 01:42:36;;;;;;;11.27;7.55;;;;;;;7.75;50.88;100599.75;5077930;28;20047;-75
2021/10/12 01:45:03;;;;;;;13.13;7.20;;;;;;;7.74;50.52;100606.00;5077853;28;20125;-74
2021/10/12 01:47:29;;;;;;;14.38;7.13;;;;;;;7.74;50.76;100619.31;5077858;28;20048;-75
2021/10/12 01:49:56;;;;;;;13.10;7.63;;;;;;;7.70;50.75;100591.13;5094773;28;20048;-75
2021/10/12 01:52:22;;;;;;;12.27;7.07;;;;;;;7.78;50.79;100620.88;5077871;28;20127;-74
2021/10/12 01:54:48;;;;;;;12.68;7.05;;;;;;;7.83;50.46;100626.00;5060996;28;20137;-75
2021/10/12 01:57:14;;;;;;;21.17;7.88;;;;;;;7.77;50.36;100617.38;5061514;28;20032;-75
2021/10/12 01:59:40;;;;;;;13.70;7.78;;;;;;;7.62;50.38;100622.56;5077787;28;20048;-75
2021/10/12 02:02:05;;;;;;;22.00;7.72;;;;;;;7.62;50.73;100617.25;5044210;28;20036;-75
2021/10/12 02:04:32;;;;;;;12.93;8.15;;;;;;;7.51;50.71;100626.59;5077872;28;20051;-75
2021/10/12 02:06:59;;;;;;;18.63;8.32;;;;;;;7.40;50.83;100612.91;5044041;28;20040;-75
2021/10/12 02:09:25;;;;;;;19.33;8.40;;;;;;;7.46;50.55;100625.09;5052825;28;20047;-74
2021/10/12 02:11:51;;;;;;;15.38;8.32;;;;;;;7.35;50.55;100628.25;5077407;28;20410;-75
2021/10/12 02:14:17;;;;;;;13.50;8.65;;;;;;;7.32;50.81;100633.69;5044178;28;20036;-74
2021/10/12 02:16:43;;;;;;;22.88;8.80;;;;;;;7.16;51.09;100630.03;5060615;28;20043;-74
2021/10/12 02:19:09;;;;;;;14.00;8.30;;;;;;;7.02;51.14;100631.50;5060622;28;20044;-76
2021/10/12 02:21:35;;;;;;;13.55;8.10;;;;;;;7.00;51.37;100627.19;5044300;28;20051;-74
2021/10/12 02:24:01;;;;;;;15.30;8.95;;;;;;;7.09;51.29;100639.19;5077027;28;20221;-76
2021/10/12 02:26:27;;;;;;;10.82;7.80;;;;;;;7.14;51.09;100631.88;5060207;28;20056;-75
2021/10/12 02:28:53;;;;;;;14.23;7.80;;;;;;;7.20;50.72;100631.59;5076994;28;20040;-75
2021/10/12 02:31:19;;;;;;;20.33;8.65;;;;;;;7.17;50.93;100626.41;5059928;28;20138;-75
2021/10/12 02:33:45;;;;;;;11.57;8.13;;;;;;;7.10;51.08;100635.59;5043601;28;20151;-75
2021/10/12 02:36:11;;;;;;;13.25;8.73;;;;;;;7.06;51.71;100630.41;5077241;28;20134;-76
2021/10/12 02:38:37;;;;;;;18.05;9.60;;;;;;;7.15;51.47;100641.59;5059961;28;20131;-76
2021/10/12 02:41:03;;;;;;;22.02;11.85;;;;;;;7.17;51.34;100637.06;5060232;28;20036;-76
2021/10/12 02:43:29;;;;;;;16.83;9.18;;;;;;;7.19;51.50;100640.53;5026929;28;20040;-75
2021/10/12 02:45:55;;;;;;;16.48;9.43;;;;;;;7.17;51.41;100626.41;5043431;28;20141;-76
2021/10/12 02:48:21;;;;;;;15.40;9.98;;;;;;;7.21;51.15;100639.50;5092876;28;20483;-75
2021/10/12 02:50:47;;;;;;;18.40;9.63;;;;;;;7.22;51.52;100645.69;5094146;28;20047;-75
2021/10/12 02:53:14;;;;;;;19.50;9.77;;;;;;;7.15;51.44;100620.31;5093333;28;20055;-75
2021/10/12 02:55:40;;;;;;;17.00;10.02;;;;;;;7.22;51.66;100643.03;5077074;28;20391;-75
2021/10/12 02:58:06;;;;;;;22.52;10.68;;;;;;;7.25;51.80;100646.41;5076988;28;20101;-75
2021/10/12 03:00:32;;;;;;;20.63;11.50;;;;;;;7.32;51.96;100651.47;5059405;28;20036;-75
2021/10/12 03:02:58;;;;;;;23.30;11.15;;;;;;;7.26;52.26;100650.81;5026400;28;20040;-74
2021/10/12 03:05:24;;;;;;;24.75;11.60;;;;;;;7.36;52.60;100653.91;5026322;28;20131;-76
2021/10/12 03:07:50;;;;;;;20.27;11.40;;;;;;;7.41;52.90;100643.94;5076227;28;20112;-76
2021/10/12 03:10:16;;;;;;;26.83;12.77;;;;;;;7.47;53.14;100662.25;5093185;28;20044;-76
2021/10/12 03:12:42;;;;;;;22.25;11.57;;;;;;;7.50;53.51;100661.25;5059299;28;20139;-76
2021/10/12 03:15:08;;;;;;;35.40;12.88;;;;;;;7.43;53.42;100655.34;5059140;28;20044;-76
2021/10/12 03:17:36;;;;;;;21.33;12.48;;;;;;;7.48;53.88;100669.28;5059607;28;20055;-76
2021/10/12 03:20:03;;;;;;;28.08;13.30;;;;;;;7.47;53.85;100651.59;5058958;28;20040;-75
2021/10/12 03:22:29;;;;;;;25.73;11.70;;;;;;;7.60;53.61;100669.66;5058752;28;20550;-75
2021/10/12 03:24:55;;;;;;;30.55;13.25;;;;;;;7.52;53.86;100670.91;5042280;28;20047;-75
2021/10/12 03:27:21;;;;;;;20.73;12.07;;;;;;;7.53;53.93;100661.13;5059101;28;20081;-75
2021/10/12 03:29:47;;;;;;;22.15;11.50;;;;;;;7.58;53.44;100669.75;5041999;28;20131;-76
2021/10/12 03:32:13;;;;;;;19.58;11.38;;;;;;;7.57;53.42;100657.38;5025816;28;20131;-76
2021/10/12 03:34:39;;;;;;;20.65;11.85;;;;;;;7.55;53.88;100673.41;5058864;28;20130;-76
2021/10/12 03:37:04;;;;;;;25.60;11.60;;;;;;;7.43;53.79;100660.66;5058538;28;20044;-76
2021/10/12 03:39:31;;;;;;;30.98;12.65;;;;;;;7.53;53.84;100674.44;5042406;28;20100;-77
2021/10/12 03:41:57;;;;;;;23.40;11.70;;;;;;;7.54;53.77;100674.34;5058508;28;20036;-76
2021/10/12 03:44:23;;;;;;;26.52;12.50;;;;;;;7.69;53.58;100686.06;5058569;28;20040;-75
2021/10/12 03:46:49;;;;;;;29.48;11.82;;;;;;;7.78;53.39;100682.09;5058347;28;20043;-75
2021/10/12 03:49:15;;;;;;;25.17;11.38;;;;;;;7.69;53.13;100667.44;5058183;28;20068;-77
2021/10/12 03:51:43;;;;;;;21.63;11.27;;;;;;;7.65;53.55;100678.31;5041643;28;20054;-78
2021/10/12 03:54:10;;;;;;;20.63;10.50;;;;;;;7.78;53.46;100687.44;5042425;28;20085;-75
2021/10/12 03:56:36;;;;;;;18.23;10.13;;;;;;;7.87;53.18;100689.69;5058893;28;20040;-75
2021/10/12 03:59:02;;;;;;;20.63;11.48;;;;;;;7.97;52.62;100695.41;5041751;28;20046;-76
2021/10/12 04:01:28;;;;;;;25.23;11.10;;;;;;;8.01;52.58;100692.56;5074663;28;20511;-78
2021/10/12 04:03:54;;;;;;;25.02;9.82;;;;;;;8.02;52.67;100691.59;5025706;28;20046;-77
2021/10/12 04:06:20;;;;;;;19.70;11.57;;;;;;;8.01;52.49;100684.56;5042178;28;20036;-77
2021/10/12 04:08:46;;;;;;;26.08;12.05;;;;;;;8.06;52.67;100694.13;5058975;28;20066;-76
2021/10/12 04:11:12;;;;;;;25.33;11.95;;;;;;;8.04;53.08;100705.69;5059272;28;20054;-78
2021/10/12 04:13:38;;;;;;;21.70;10.75;;;;;;;8.16;53.16;100698.06;5026315;28;20097;-78
2021/10/12 04:16:04;;;;;;;22.55;11.13;;;;;;;8.30;52.91;100700.06;5076415;28;20116;-76
2021/10/12 04:18:30;;;;;;;15.98;10.80;;;;;;;8.29;52.45;100709.84;5059252;28;20055;-76
2021/10/12 04:20:56;;;;;;;20.75;10.48;;;;;;;8.31;52.59;100707.09;5058749;28;20044;-76
2021/10/12 04:23:22;;;;;;;17.50;10.73;;;;;;;8.28;52.38;100706.31;5041521;28;20039;-76
2021/10/12 04:25:48;;;;;;;16.80;10.48;;;;;;;8.32;52.37;100707.03;5041278;28;20048;-75
2021/10/12 04:28:16;;;;;;;17.27;11.18;;;;;;;8.41;52.20;100713.75;5025159;28;20530;-76
2021/10/12 04:30:43;;;;;;;18.02;10.95;;;;;;;8.42;52.25;100716.31;5058258;28;20044;-79
2021/10/12 04:33:09;;;;;;;22.05;11.07;;;;;;;8.37;52.37;100707.69;5041636;28;20169;-75
2021/10/12 04:35:36;;;;;;;20.67;10.90;;;;;;;8.35;52.30;100717.56;5058284;28;20422;-76
2021/10/12 04:38:02;;;;;;;19.50;11.15;;;;;;;8.50;52.66;100714.16;5058014;28;20518;-76
2021/10/12 04:40:29;;;;;;;23.08;11.20;;;;;;;8.57;52.31;100720.03;5058176;28;20086;-75
2021/10/12 04:42:57;;;;;;;26.20;10.82;;;;;;;8.44;52.25;100725.13;5074630;28;20126;-76
2021/10/12 04:45:23;;;;;;;23.10;11.63;;;;;;;8.52;52.31;100730.94;5057930;28;20575;-76
2021/10/12 04:47:49;;;;;;;20.48;11.70;;;;;;;8.57;51.76;100720.03;5057958;28;20486;-75
2021/10/12 04:50:16;;;;;;;34.17;13.20;;;;;;;8.65;51.44;100722.31;5058204;28;20036;-77
2021/10/12 04:52:43;;;;;;;18.48;11.93;;;;;;;8.56;51.90;100722.78;5041369;28;20512;-76
2021/10/12 04:55:09;;;;;;;26.42;11.98;;;;;;;8.68;51.88;100727.50;5041723;28;20047;-76
2021/10/12 04:57:35;;;;;;;22.52;12.25;;;;;;;8.81;51.76;100728.63;5041207;28;20142;-76
2021/10/12 05:00:05;;;;;;;25.92;12.15;;;;;;;8.86;51.66;100736.38;5058429;28;20044;-76
2021/10/12 05:02:31;;;;;;;36.72;12.05;;;;;;;8.85;51.43;100719.53;5074758;28;20075;-75
2021/10/12 05:04:57;;;;;;;31.58;12.45;;;;;;;8.99;51.49;100738.34;5057892;28;20048;-75
2021/10/12 05:07:23;;;;;;;25.27;12.13;;;;;;;8.92;51.37;100715.59;5057573;28;20066;-75
2021/10/12 05:09:48;;;;;;;28.10;11.65;;;;;;;8.98;51.21;100720.59;5058077;28;20079;-76
2021/10/12 05:12:14;;;;;;;26.27;11.85;;;;;;;9.06;51.48;100740.69;5093913;28;20534;-77
2021/10/12 05:14:40;;;;;;;24.77;11.40;;;;;;;9.17;51.06;100751.66;5061912;28;20504;-76
2021/10/12 05:17:15;;;;;;;23.65;10.95;;;;;;;9.21;50.94;100753.22;5061835;28;20132;-76
2021/10/12 05:19:41;;;;;;;17.77;10.88;;;;;;;9.21;51.08;100753.22;5080087;28;20051;-76
2021/10/12 05:22:07;;;;;;;22.30;10.93;;;;;;;9.21;50.78;100751.44;5044806;28;20044;-78
2021/10/12 05:24:33;;;;;;;19.67;10.63;;;;;;;9.17;51.37;100752.53;5044787;28;20043;-76
2021/10/12 05:26:59;;;;;;;26.15;12.35;;;;;;;9.20;51.27;100760.38;5028153;28;20403;-78
2021/10/12 05:29:25;;;;;;;16.48;10.90;;;;;;;9.16;51.18;100744.63;5078059;28;20057;-78
2021/10/12 05:31:51;;;;;;;26.85;11.75;;;;;;;9.28;51.09;100754.63;5061590;28;20040;-76
2021/10/12 05:34:19;;;;;;;18.45;11.13;;;;;;;9.35;50.97;100756.06;5044726;28;20039;-76
2021/10/12 05:36:46;;;;;;;27.98;11.38;;;;;;;9.35;50.94;100753.38;5045060;28;20555;-76
2021/10/12 05:39:11;;;;;;;18.15;10.95;;;;;;;9.30;51.43;100752.78;5044528;28;20040;-78
2021/10/12 05:41:37;;;;;;;25.88;11.15;;;;;;;9.48;50.92;100751.81;5044505;28;20051;-77
2021/10/12 05:44:04;;;;;;;22.00;11.32;;;;;;;9.59;51.16;100753.03;5077902;28;20125;-75
2021/10/12 05:46:29;;;;;;;23.92;11.27;;;;;;;9.60;50.95;100754.78;5060828;28;20067;-75
2021/10/12 05:48:57;;;;;;;19.13;11.27;;;;;;;9.66;50.66;100754.41;5061114;28;20082;-76
2021/10/12 05:51:25;;;;;;;19.77;11.85;;;;;;;9.61;50.99;100762.69;5061660;28;20047;-75
2021/10/12 05:53:52;;;;;;;23.00;11.32;;;;;;;9.76;50.64;100755.66;5044353;28;20059;-76
2021/10/12 05:56:25;;;;;;;21.42;12.00;;;;;;;9.68;50.97;100757.88;5028123;28;20139;-76
2021/10/12 05:58:51;;;;;;;22.60;11.55;;;;;;;9.82;50.52;100763.34;5078212;28;20051;-76
2021/10/12 06:01:18;;;;;;;23.85;11.73;;;;;;;9.89;50.46;100756.72;5027653;28;20143;-76
2021/10/12 06:03:44;;;;;;;20.08;11.63;;;;;;;9.88;50.37;100765.66;5043254;28;20073;-77
2021/10/12 06:06:13;;;;;;;27.10;12.15;;;;;;;9.92;50.37;100743.19;5043310;28;20062;-76
2021/10/12 06:08:40;;;;;;;28.13;10.70;;;;;;;10.03;50.40;100758.63;5077007;28;20540;-77
2021/10/12 06:11:06;;;;;;;21.65;11.52;;;;;;;10.24;50.21;100767.28;5058431;28;20051;-76
2021/10/12 06:13:33;;;;;;;30.30;12.57;;;;;;;10.31;49.75;100747.31;5058084;28;20040;-76
2021/10/12 06:15:59;;;;;;;26.52;12.38;;;;;;;10.51;49.61;100759.53;5075217;28;20458;-76
2021/10/12 06:18:25;;;;;;;24.08;11.70;;;;;;;10.62;49.29;100764.25;5092032;28;20047;-77
2021/10/12 06:20:51;;;;;;;26.27;12.70;;;;;;;10.63;49.04;100742.78;5058687;28;20047;-78
2021/10/12 06:23:18;;;;;;;27.60;11.95;;;;;;;10.73;48.73;100758.31;5040578;28;20048;-77
2021/10/12 06:25:45;;;;;;;27.33;12.50;;;;;;;10.73;48.72;100772.53;5077013;28;20036;-76
2021/10/12 06:28:15;;;;;;;25.83;11.82;;;;;;;10.80;48.71;100757.84;5043878;28;20101;-77
2021/10/12 06:30:44;;;;;;;27.35;13.15;;;;;;;10.82;48.78;100747.91;5077751;28;20166;-77
2021/10/12 06:33:10;;;;;;;24.80;12.75;;;;;;;10.91;48.54;100752.72;5060209;28;20409;-76
2021/10/12 06:35:36;;;;;;;24.90;12.40;;;;;;;11.09;48.34;100771.31;5060358;28;20040;-76
2021/10/12 06:38:03;;;;;;;36.47;13.73;;;;;;;11.16;48.49;100761.97;5077397;28;20047;-76
2021/10/12 06:40:29;;;;;;;31.60;13.80;;;;;;;11.29;48.17;100778.16;5060226;28;20170;-76
2021/10/12 06:42:55;;;;;;;30.92;13.43;;;;;;;11.44;47.85;100766.53;5077003;28;20134;-76
2021/10/12 06:45:21;;;;;;;24.98;13.82;;;;;;;11.47;47.54;100761.00;5060902;28;20039;-76
2021/10/12 06:47:47;;;;;;;24.00;13.23;;;;;;;11.42;47.42;100769.28;5043645;28;20042;-77
2021/10/12 06:50:14;;;;;;;24.25;13.93;;;;;;;11.45;47.80;100756.69;5059738;28;20526;-76
2021/10/12 06:52:40;;;;;;;36.88;13.55;;;;;;;11.58;47.58;100763.84;5060012;28;20040;-76
2021/10/12 06:55:10;;;;;;;30.00;13.25;;;;;;;11.62;47.61;100746.66;5059946;28;20044;-75
2021/10/12 06:57:36;;;;;;;23.23;13.52;;;;;;;11.88;47.31;100766.50;5044951;28;20043;-76
2021/10/12 07:00:03;;;;;;;23.33;13.05;;;;;;;11.93;47.39;100773.38;5076808;28;20055;-77
2021/10/12 07:02:29;;;;;;;29.52;12.32;;;;;;;11.97;47.02;100772.22;5076605;28;20094;-78
2021/10/12 07:04:55;;;;;;;21.52;12.50;;;;;;;12.00;46.95;100753.25;5059426;28;20523;-77
2021/10/12 07:07:21;;;;;;;25.17;13.18;;;;;;;12.16;46.60;100770.09;5042988;28;20439;-77
2021/10/12 07:09:47;;;;;;;42.38;13.95;;;;;;;12.21;46.54;100767.97;5076084;28;20131;-75
2021/10/12 07:12:13;;;;;;;45.85;15.30;;;;;;;12.33;46.62;100772.53;5042955;28;20043;-76
2021/10/12 07:14:39;;;;;;;28.23;15.05;;;;;;;12.42;46.23;100770.25;5059729;28;20043;-77
2021/10/12 07:17:05;;;;;;;31.38;14.77;;;;;;;12.45;46.18;100759.28;5059519;28;20063;-76
2021/10/12 07:19:31;;;;;;;33.83;16.00;;;;;;;12.66;45.84;100768.63;5059379;28;20044;-76
2021/10/12 07:21:58;;;;;;;25.45;13.82;;;;;;;12.75;45.05;100778.78;5076153;28;20125;-77
2021/10/12 07:24:24;;;;;;;23.17;14.85;;;;;;;12.64;45.19;100760.69;5043389;28;20040;-77
2021/10/12 07:26:50;;;;;;;37.40;15.48;;;;;;;12.74;44.81;100770.81;5076126;28;20052;-77
2021/10/12 07:29:16;;;;;;;32.97;14.95;;;;;;;12.87;45.00;100777.09;5059327;28;20086;-76
2021/10/12 07:31:42;;;;;;;31.83;14.15;;;;;;;12.96;44.40;100772.91;5076083;28;20079;-76
2021/10/12 07:34:08;;;;;;;23.02;13.75;;;;;;;12.95;44.99;100774.75;5051964;28;20059;-75
2021/10/12 07:36:35;;;;;;;32.47;13.88;;;;;;;12.87;44.81;100763.66;5089555;28;20053;-76
2021/10/12 07:39:02;;;;;;;30.50;14.73;;;;;;;13.09;44.67;100771.13;5079099;28;20085;-77
2021/10/12 07:41:29;;;;;;;32.65;15.07;;;;;;;13.21;44.34;100780.19;5095849;28;20051;-76
2021/10/12 07:43:54;;;;;;;27.92;13.65;;;;;;;13.20;44.26;100782.00;5079096;28;20529;-79
2021/10/12 07:46:20;;;;;;;28.02;14.30;;;;;;;13.14;44.21;100769.00;5055785;28;20438;-77
2021/10/12 07:48:46;;;;;;;33.80;14.18;;;;;;;13.10;44.28;100767.47;5073356;28;20044;-76
2021/10/12 07:51:12;;;;;;;24.10;14.00;;;;;;;13.08;44.50;100777.44;5067420;28;20039;-75
2021/10/12 07:53:39;;;;;;;30.65;14.05;;;;;;;13.09;44.28;100768.47;5112788;28;20092;-76
2021/10/12 07:56:09;;;;;;;33.22;14.35;;;;;;;13.30;44.30;100780.44;5025726;28;20044;-78
2021/10/12 07:58:36;;;;;;;34.15;13.60;;;;;;;13.45;44.06;100773.16;5039956;28;20045;-79
2021/10/12 08:01:03;;;;;;;25.85;13.52;;;;;;;13.61;43.68;100778.31;5055352;28;20044;-78
2021/10/12 08:03:29;;;;;;;26.02;13.80;;;;;;;13.68;43.47;100774.22;5055439;28;20093;-80
2021/10/12 08:05:56;;;;;;;29.10;14.48;;;;;;;13.76;43.38;100762.94;5078882;28;20573;-77
2021/10/12 08:08:21;;;;;;;31.27;13.30;;;;;;;13.76;43.35;100771.84;5078780;28;20579;-78
2021/10/12 08:10:47;;;;;;;25.00;13.80;;;;;;;13.92;43.41;100777.03;5062633;28;20130;-79
2021/10/12 08:13:17;;;;;;;29.70;13.57;;;;;;;13.89;43.30;100781.75;5062293;28;20043;-79
2021/10/12 08:15:46;;;;;;;;;;;;;;;13.87;43.16;100783.69;5064265;28;20035;-78
2021/10/12 08:18:12;;;;;;;25.63;13.43;;;;;;;13.93;43.40;100769.81;5114700;28;19916;-77
2021/10/12 08:20:38;;;;;;;34.45;14.02;;;;;;;14.30;42.88;100781.47;5051561;28;20066;-77
2021/10/12 08:23:05;;;;;;;26.25;14.23;;;;;;;14.58;42.50;100774.94;5089863;28;20074;-79
2021/10/12 08:25:31;;;;;;;30.60;12.52;;;;;;;14.81;43.40;100771.41;5098274;28;20043;-84
2021/10/12 08:27:57;;;;;;;29.15;14.13;;;;;;;14.96;42.24;100772.06;5059857;28;20075;-86
2021/10/12 08:30:23;;;;;;;28.02;14.00;;;;;;;15.19;42.12;100766.78;5076388;28;20048;-76
2021/10/12 08:32:49;;;;;;;33.22;13.57;;;;;;;15.43;41.36;100774.81;5091615;28;20070;-77
2021/10/12 08:35:15;;;;;;;25.23;13.15;;;;;;;15.63;40.82;100768.72;5058368;28;20044;-77
2021/10/12 08:37:41;;;;;;;28.02;12.70;;;;;;;15.60;40.39;100758.16;5090949;28;20145;-78
2021/10/12 08:40:13;;;;;;;26.60;12.57;;;;;;;15.71;40.24;100763.59;5057728;28;20040;-76
2021/10/12 08:42:52;;;;;;;24.80;11.05;;;;;;;15.73;39.79;100769.75;5092193;28;20044;-77
2021/10/12 08:45:20;;;;;;;18.80;12.23;;;;;;;15.79;39.91;100763.84;5057189;28;20087;-77
2021/10/12 08:47:46;;;;;;;33.05;13.02;;;;;;;15.95;39.49;100768.06;5042666;28;20037;-75
2021/10/12 08:50:16;;;;;;;27.05;13.10;;;;;;;16.19;39.90;100765.22;5038013;28;20037;-77
2021/10/12 08:52:44;;;;;;;30.13;13.23;;;;;;;16.36;39.26;100766.53;5053665;28;20041;-76
2021/10/12 08:55:10;;;;;;;25.83;12.00;;;;;;;16.13;38.91;100761.16;5054325;28;20657;-77
2021/10/12 08:57:38;;;;;;;20.80;11.63;;;;;;;16.29;38.76;100762.66;5072067;28;20044;-76
2021/10/12 09:00:12;;;;;;;21.13;11.32;;;;;;;16.37;38.30;100749.38;5070905;28;20178;-77
2021/10/12 09:03:39;;;;;;;19.70;10.00;;;;;;;16.54;38.12;100762.31;5055247;28;20143;-76
2021/10/12 09:06:00;;;;;;;25.50;10.68;;;;;;;16.55;38.46;100753.25;5038725;28;20047;-78
2021/10/12 09:08:35;;;;;;;24.33;11.05;;;;;;;16.80;37.78;100764.75;5038333;28;20040;-77
2021/10/12 09:11:03;;;;;;;17.65;9.15;;;;;;;16.84;37.44;100760.81;5053896;28;20140;-77
2021/10/12 09:13:30;;;;;;;19.20;9.60;;;;;;;16.92;37.46;100763.72;5054537;28;20503;-78
2021/10/12 09:16:03;;;;;;;19.30;8.95;;;;;;;17.03;37.33;100760.97;5070454;28;20169;-76
2021/10/12 09:18:56;;;;;;;13.02;9.73;;;;;;;17.12;36.73;100759.34;5054052;28;20052;-77
2021/10/12 09:21:26;;;;;;;23.30;10.18;;;;;;;17.09;37.12;100757.75;5067816;28;20048;-76
2021/10/12 09:24:08;;;;;;;20.73;10.02;;;;;;;17.10;37.00;100762.16;5053905;28;20096;-77
2021/10/12 09:26:39;;;;;;;20.65;9.85;;;;;;;17.44;37.02;100765.53;5054950;28;20151;-77
2021/10/12 09:29:16;;;;;;;20.85;10.93;;;;;;;17.92;35.72;100742.50;5070827;28;20045;-75
2021/10/12 09:31:44;;;;;;;24.88;11.35;;;;;;;18.54;35.50;100749.53;5070643;28;20041;-76
2021/10/12 09:34:12;;;;;;;14.85;8.80;;;;;;;18.68;34.50;100749.09;5087203;28;20048;-76
2021/10/12 09:36:42;;;;;;;22.80;8.77;;;;;;;18.89;34.45;100753.59;5069665;28;20041;-76
2021/10/12 09:39:19;;;;;;;14.80;8.82;;;;;;;19.07;34.25;100743.75;5037379;28;20068;-77
2021/10/12 09:41:54;;;;;;;14.35;8.00;;;;;;;18.85;33.64;100741.31;5039655;28;20079;-76
2021/10/12 09:44:20;;;;;;;14.25;8.27;;;;;;;18.62;33.78;100730.72;5038217;28;20094;-76
2021/10/12 09:46:48;;;;;;;13.25;8.10;;;;;;;18.73;34.31;100746.03;5053484;28;20040;-76
2021/10/12 09:49:33;;;;;;;18.92;7.07;;;;;;;19.09;33.97;100746.31;5070750;28;20139;-76
2021/10/12 09:52:15;;;;;;;13.32;6.80;;;;;;;19.14;33.73;100736.75;5053315;28;20115;-76
2021/10/12 09:54:47;;;;;;;10.48;6.78;;;;;;;18.99;33.52;100730.03;5038794;28;20201;-75
2021/10/12 09:57:13;;;;;;;15.88;7.50;;;;;;;18.88;33.47;100733.78;5070866;28;20129;-76
2021/10/12 09:59:39;;;;;;;12.43;6.32;;;;;;;18.83;33.41;100732.47;5040634;28;20147;-75
2021/10/12 10:02:05;;;;;;;11.75;6.00;;;;;;;18.79;33.55;100739.16;5074028;28;20372;-76
2021/10/12 10:04:31;;;;;;;9.20;6.20;;;;;;;18.48;33.79;100720.28;5040647;28;20085;-75
2021/10/12 10:07:04;;;;;;;11.70;4.97;;;;;;;18.51;34.30;100728.16;5057227;28;20045;-75
2021/10/12 10:09:30;;;;;;;8.45;5.38;;;;;;;18.81;33.51;100726.34;5073832;28;20040;-76
2021/10/12 10:11:56;;;;;;;10.02;5.57;;;;;;;19.00;33.45;100734.47;5057083;28;20079;-76
2021/10/12 10:14:22;;;;;;;12.10;6.20;;;;;;;18.85;33.46;100706.09;5040288;28;20064;-76
2021/10/12 10:16:50;;;;;;;17.48;7.45;;;;;;;18.92;33.13;100727.06;5057446;28;20047;-77
2021/10/12 10:19:23;;;;;;;14.57;7.13;;;;;;;18.97;33.65;100720.34;5057851;28;20044;-76
2021/10/12 10:21:49;;;;;;;10.93;5.60;;;;;;;19.42;33.30;100723.28;5057717;28;20510;-76
2021/10/12 10:24:37;;;;;;;;;;;;;;;19.69;32.14;100727.09;5025553;28;20502;-75
2021/10/12 10:27:05;;;;;;;6.05;3.58;;;;;;;20.29;31.51;100722.13;5086282;28;19923;-75
2021/10/12 10:29:38;;;;;;;7.40;3.45;;;;;;;20.67;31.03;100718.31;5090264;28;20416;-77
2021/10/12 10:32:11;;;;;;;6.38;3.13;;;;;;;20.79;30.60;100713.50;5060918;28;20498;-76
2021/10/12 10:34:42;;;;;;;6.88;3.53;;;;;;;20.50;30.61;100714.59;5109270;28;20111;-77
2021/10/12 10:37:17;;;;;;;5.57;3.28;;;;;;;20.00;31.43;100722.25;5080106;28;20051;-77
2021/10/12 10:39:53;;;;;;;5.72;3.55;;;;;;;20.17;31.05;100707.03;5113894;28;20058;-77
2021/10/12 10:42:25;;;;;;;6.88;2.97;;;;;;;20.69;30.78;100716.31;5080275;28;20043;-77
2021/10/12 10:45:01;;;;;;;5.78;3.40;;;;;;;21.07;29.98;100712.41;5114979;28;20184;-77
2021/10/12 10:47:40;;;;;;;7.18;3.28;;;;;;;21.40;29.32;100717.25;5114058;28;20494;-77
2021/10/12 10:50:25;;;;;;;6.70;2.70;;;;;;;21.56;29.23;100706.50;5114301;28;20035;-77
2021/10/12 10:52:54;;;;;;;18.33;3.08;;;;;;;21.46;29.06;100708.47;5114139;28;20039;-77
2021/10/12 10:55:30;;;;;;;5.75;3.03;;;;;;;21.50;29.08;100707.97;5080087;28;20482;-76
2021/10/12 10:58:16;;;;;;;6.53;3.53;;;;;;;21.67;28.67;100702.66;5046698;28;20040;-77
2021/10/12 11:00:49;;;;;;;5.32;3.30;;;;;;;21.56;28.14;100710.06;5063845;28;20048;-76
2021/10/12 11:03:36;;;;;;;5.13;3.72;;;;;;;21.59;28.71;100711.63;5062914;28;20047;-75
2021/10/12 11:06:12;;;;;;;8.02;4.00;;;;;;;21.51;28.14;100715.16;5096427;28;20043;-77
2021/10/12 11:08:41;;;;;;;3.88;3.40;;;;;;;20.58;29.32;100703.78;5062166;28;20051;-77
2021/10/12 11:11:08;;;;;;;4.15;3.33;;;;;;;20.46;29.59;100712.28;5096590;28;20062;-76
2021/10/12 11:13:38;;;;;;;5.38;3.30;;;;;;;20.66;29.42;100713.91;5063233;28;20398;-78
2021/10/12 11:16:08;;;;;;;6.18;3.38;;;;;;;20.89;29.05;100708.84;5113484;28;20399;-76
2021/10/12 11:18:35;;;;;;;7.88;3.10;;;;;;;20.71;29.01;100706.13;5078618;28;20114;-76
2021/10/12 11:21:03;;;;;;;3.25;2.95;;;;;;;20.71;29.33;100713.41;5072539;28;20094;-76